Time;durP1;ratioP1;P1;durP2;ratioP2;P2;SDS_P1;SDS_P2;PMS_P1;PMS_P2;Temp;Humidity;BMP_temperature;BMP_pressure;BME280_temperature;BME280_humidity;BME280_pressure;Samples;Min_cycle;Max_cycle;Signal;HPM_P1;HPM_P2
2022/11/06 00:00:22;;;;;;;23.25;11.53;;;;;;;;;;1747442;82;21061;-67
2022/11/06 00:02:48;;;;;;;23.83;10.35;;;;;;;;;;1754375;82;21041;-68
2022/11/06 00:07:59;;;;;;;22.62;10.95;;;;;;;;;;1732887;80;21018;-68
2022/11/06 00:10:25;;;;;;;22.87;11.38;;;;;;;;;;1714005;83;20971;-67
2022/11/06 00:12:51;;;;;;;20.90;10.38;;;;;;;;;;1696955;83;21086;-67
2022/11/06 00:15:18;;;;;;;23.15;10.93;;;;;;;;;;1713897;83;21870;-67
2022/11/06 00:17:47;;;;;;;26.37;11.35;;;;;;;;;;1702638;83;21038;-67
2022/11/06 00:20:13;;;;;;;24.40;10.60;;;;;;;;;;1711057;82;20979;-67
2022/11/06 00:22:40;;;;;;;22.73;11.00;;;;;;;;;;1707051;83;20999;-67
2022/11/06 00:25:07;;;;;;;25.05;11.38;;;;;;;;;;1706932;83;21605;-67
2022/11/06 00:27:36;;;;;;;24.05;11.30;;;;;;;;;;1718251;83;21046;-67
2022/11/06 00:30:04;;;;;;;25.17;12.15;;;;;;;;;;1720045;82;21019;-68
2022/11/06 00:32:30;;;;;;;23.62;11.30;;;;;;;;;;1714927;83;21045;-67
2022/11/06 00:34:56;;;;;;;19.23;10.00;;;;;;;;;;1704831;83;20994;-68
2022/11/06 00:37:22;;;;;;;21.57;10.25;;;;;;;;;;1698245;83;21062;-67
2022/11/06 00:39:49;;;;;;;22.58;11.30;;;;;;;;;;1723260;83;21015;-67
2022/11/06 00:42:16;;;;;;;24.32;11.55;;;;;;;;;;1731814;82;21054;-67
2022/11/06 00:44:42;;;;;;;24.47;12.65;;;;;;;;;;1724259;83;21070;-68
2022/11/06 00:47:08;;;;;;;22.67;10.43;;;;;;;;;;1712964;83;21089;-67
2022/11/06 00:49:35;;;;;;;22.90;11.12;;;;;;;;;;1701696;82;21054;-67
2022/11/06 00:52:01;;;;;;;24.43;11.60;;;;;;;;;;1714983;83;21514;-67
2022/11/06 00:54:27;;;;;;;25.55;12.53;;;;;;;;;;1721520;83;21490;-67
2022/11/06 00:56:53;;;;;;;22.70;11.00;;;;;;;;;;1706457;83;20999;-67
2022/11/06 00:59:18;;;;;;;25.12;11.68;;;;;;;;;;1716402;83;21121;-68
2022/11/06 01:01:45;;;;;;;24.90;12.30;;;;;;;;;;1697237;83;21581;-68
2022/11/06 01:04:19;;;;;;;23.75;11.80;;;;;;;;;;1713414;83;21069;-68
2022/11/06 01:06:44;;;;;;;;;;;;;;;;;;1699003;83;21624;-68
2022/11/06 01:09:12;;;;;;;28.15;11.40;;;;;;;;;;1685583;84;20131;-68
2022/11/06 01:11:40;;;;;;;18.52;9.60;;;;;;;;;;1739516;81;21009;-68
2022/11/06 01:14:09;;;;;;;21.10;11.45;;;;;;;;;;1695572;82;21268;-68
2022/11/06 01:16:37;;;;;;;22.50;11.08;;;;;;;;;;1688299;84;21059;-68
2022/11/06 01:19:03;;;;;;;26.45;11.88;;;;;;;;;;1741388;82;21500;-68
2022/11/06 01:21:33;;;;;;;23.95;11.73;;;;;;;;;;1732146;82;21041;-68
2022/11/06 01:24:01;;;;;;;26.42;11.45;;;;;;;;;;1731748;82;22122;-68
2022/11/06 01:26:29;;;;;;;21.02;11.48;;;;;;;;;;1723446;82;20991;-68
2022/11/06 01:28:55;;;;;;;23.75;10.90;;;;;;;;;;1726615;81;21466;-69
2022/11/06 01:31:23;;;;;;;23.22;11.33;;;;;;;;;;1724929;82;21005;-69
2022/11/06 01:33:49;;;;;;;26.48;12.63;;;;;;;;;;1737452;82;20990;-69
2022/11/06 01:36:16;;;;;;;24.67;11.95;;;;;;;;;;1733456;82;21092;-68
2022/11/06 01:38:43;;;;;;;24.52;11.18;;;;;;;;;;1746341;81;21524;-68
2022/11/06 01:41:13;;;;;;;24.15;11.20;;;;;;;;;;1741995;82;20994;-68
2022/11/06 01:43:48;;;;;;;24.95;12.40;;;;;;;;;;1718143;82;21112;-68
2022/11/06 01:46:18;;;;;;;24.67;11.15;;;;;;;;;;1716710;82;21505;-68
2022/11/06 01:48:47;;;;;;;25.12;11.80;;;;;;;;;;1728720;82;20971;-68
2022/11/06 01:51:13;;;;;;;25.52;11.60;;;;;;;;;;1731490;81;20997;-68
2022/11/06 01:53:39;;;;;;;24.80;12.28;;;;;;;;;;1728514;82;21018;-68
2022/11/06 01:56:06;;;;;;;22.70;11.68;;;;;;;;;;1728104;82;21986;-68
2022/11/06 01:58:33;;;;;;;22.62;10.60;;;;;;;;;;1740292;82;21093;-69
2022/11/06 02:04:04;;;;;;;20.95;10.88;;;;;;;;;;1764327;78;76333;-66
2022/11/06 02:06:31;;;;;;;22.45;11.03;;;;;;;;;;1747746;80;20983;-65
2022/11/06 02:08:57;;;;;;;23.32;10.88;;;;;;;;;;1759052;81;21043;-66
2022/11/06 02:11:23;;;;;;;25.40;11.88;;;;;;;;;;1752482;81;21598;-66
2022/11/06 02:13:54;;;;;;;23.25;11.65;;;;;;;;;;1750308;81;21094;-66
2022/11/06 02:16:39;;;;;;;26.12;12.18;;;;;;;;;;1751818;80;21021;-66
2022/11/06 02:19:07;;;;;;;24.95;10.98;;;;;;;;;;1752114;81;21016;-66
2022/11/06 02:21:52;;;;;;;21.75;11.08;;;;;;;;;;1757500;81;21031;-66
2022/11/06 02:24:27;;;;;;;24.40;10.90;;;;;;;;;;1746771;81;21021;-66
2022/11/06 02:27:02;;;;;;;24.43;10.80;;;;;;;;;;1746703;80;21002;-66
2022/11/06 02:29:33;;;;;;;24.70;11.10;;;;;;;;;;1747100;81;21061;-66
2022/11/06 02:32:02;;;;;;;23.27;10.15;;;;;;;;;;1747364;81;21005;-66
2022/11/06 02:34:29;;;;;;;24.18;10.32;;;;;;;;;;1747256;81;21095;-66
2022/11/06 02:36:57;;;;;;;22.50;11.22;;;;;;;;;;1754232;80;21027;-66
2022/11/06 02:39:24;;;;;;;22.93;11.12;;;;;;;;;;1746612;82;21042;-66
2022/11/06 02:41:50;;;;;;;22.80;9.83;;;;;;;;;;1746908;81;21029;-66
2022/11/06 02:44:19;;;;;;;24.80;12.15;;;;;;;;;;1742776;81;21004;-66
2022/11/06 02:46:47;;;;;;;22.22;10.90;;;;;;;;;;1753832;80;21029;-67
2022/11/06 02:49:20;;;;;;;22.45;10.00;;;;;;;;;;1753044;81;21099;-65
2022/11/06 02:51:48;;;;;;;22.55;10.88;;;;;;;;;;1757078;81;21032;-66
2022/11/06 02:54:14;;;;;;;23.27;10.60;;;;;;;;;;1754025;81;21192;-67
2022/11/06 02:56:41;;;;;;;24.00;10.65;;;;;;;;;;1750549;80;21041;-66
2022/11/06 02:59:10;;;;;;;24.05;11.83;;;;;;;;;;1747282;81;21584;-66
2022/11/06 03:01:39;;;;;;;25.35;11.15;;;;;;;;;;1748466;82;21087;-67
2022/11/06 03:04:07;;;;;;;21.85;11.35;;;;;;;;;;1729215;81;21635;-66
2022/11/06 03:06:36;;;;;;;26.23;11.95;;;;;;;;;;1716665;82;22197;-65
2022/11/06 03:09:05;;;;;;;24.10;11.63;;;;;;;;;;1713028;82;21061;-65
2022/11/06 03:11:34;;;;;;;23.83;11.20;;;;;;;;;;1715428;83;21068;-66
2022/11/06 03:14:19;;;;;;;28.57;12.20;;;;;;;;;;1712393;83;21052;-66
2022/11/06 03:17:05;;;;;;;25.80;13.10;;;;;;;;;;1719279;82;21005;-66
2022/11/06 03:19:41;;;;;;;26.12;13.30;;;;;;;;;;1716096;83;21068;-65
2022/11/06 03:22:08;;;;;;;22.32;12.45;;;;;;;;;;1712818;83;21049;-65
2022/11/06 03:24:36;;;;;;;31.12;13.18;;;;;;;;;;1712440;84;21006;-66
2022/11/06 03:27:04;;;;;;;25.10;11.95;;;;;;;;;;1712716;82;21086;-65
2022/11/06 03:29:35;;;;;;;30.75;13.30;;;;;;;;;;1712509;83;22224;-65
2022/11/06 03:32:19;;;;;;;26.35;11.43;;;;;;;;;;1714851;83;21531;-65
2022/11/06 03:34:49;;;;;;;34.48;15.60;;;;;;;;;;1718729;83;21075;-66
2022/11/06 03:37:17;;;;;;;26.57;13.95;;;;;;;;;;1715705;82;21061;-67
2022/11/06 03:39:46;;;;;;;27.52;12.75;;;;;;;;;;1712545;84;21441;-66
2022/11/06 03:42:13;;;;;;;30.72;13.38;;;;;;;;;;1715213;83;21531;-66
2022/11/06 03:44:44;;;;;;;30.62;14.68;;;;;;;;;;1715697;83;21064;-66
2022/11/06 03:47:24;;;;;;;28.00;12.15;;;;;;;;;;1715587;82;21008;-66
2022/11/06 03:49:52;;;;;;;38.33;14.35;;;;;;;;;;1712348;84;21552;-66
2022/11/06 03:52:20;;;;;;;29.25;12.70;;;;;;;;;;1712514;83;21485;-66
2022/11/06 03:54:49;;;;;;;29.85;11.97;;;;;;;;;;1712405;84;21588;-66
2022/11/06 03:57:17;;;;;;;28.00;13.30;;;;;;;;;;1712223;82;21073;-66
2022/11/06 03:59:45;;;;;;;27.32;12.47;;;;;;;;;;1712627;84;21064;-66
2022/11/06 04:02:11;;;;;;;34.23;14.15;;;;;;;;;;1712788;83;21094;-65
2022/11/06 04:04:52;;;;;;;23.55;12.23;;;;;;;;;;1712717;82;21159;-65
2022/11/06 04:07:21;;;;;;;26.17;12.45;;;;;;;;;;1699951;84;21552;-66
2022/11/06 04:15:13;;;;;;;27.75;12.45;;;;;;;;;;1589943;90;21642;-66
2022/11/06 04:17:41;;;;;;;26.40;11.73;;;;;;;;;;1706543;83;21063;-66
2022/11/06 04:20:09;;;;;;;30.45;12.95;;;;;;;;;;1719213;83;21069;-66
2022/11/06 04:22:46;;;;;;;27.70;12.88;;;;;;;;;;1711620;83;21021;-65
2022/11/06 04:28:17;;;;;;;;;;;;;;;;;;1692133;84;21069;-66
2022/11/06 04:30:51;;;;;;;31.75;13.43;;;;;;;;;;1711001;83;20168;-66
2022/11/06 04:33:21;;;;;;;33.73;14.45;;;;;;;;;;1696227;84;21033;-66
2022/11/06 04:35:58;;;;;;;35.33;13.93;;;;;;;;;;1714236;84;21108;-66
2022/11/06 04:38:30;;;;;;;31.95;13.88;;;;;;;;;;1717441;83;21561;-66
2022/11/06 04:41:04;;;;;;;32.88;13.55;;;;;;;;;;1719978;83;21085;-66
2022/11/06 04:43:32;;;;;;;32.98;15.08;;;;;;;;;;1697462;83;21072;-66
2022/11/06 04:45:58;;;;;;;31.15;13.15;;;;;;;;;;1714119;83;21060;-66
2022/11/06 04:48:25;;;;;;;34.75;13.78;;;;;;;;;;1717493;83;21082;-66
2022/11/06 04:50:53;;;;;;;27.80;12.43;;;;;;;;;;1716912;83;21096;-65
2022/11/06 04:53:19;;;;;;;23.80;11.53;;;;;;;;;;1708533;84;21076;-66
2022/11/06 04:55:46;;;;;;;28.17;13.35;;;;;;;;;;1679997;84;21090;-65
2022/11/06 04:58:13;;;;;;;29.85;14.05;;;;;;;;;;1705515;83;21030;-66
2022/11/06 05:00:40;;;;;;;27.67;11.57;;;;;;;;;;1712024;83;21016;-66
2022/11/06 05:03:06;;;;;;;28.55;12.60;;;;;;;;;;1691905;84;21053;-65
2022/11/06 05:05:34;;;;;;;31.52;12.68;;;;;;;;;;1712052;84;21137;-65
2022/11/06 05:08:01;;;;;;;29.15;12.85;;;;;;;;;;1715733;83;21066;-65
2022/11/06 05:10:28;;;;;;;29.27;11.85;;;;;;;;;;1715007;83;21068;-65
2022/11/06 05:12:54;;;;;;;27.05;11.85;;;;;;;;;;1692299;84;21069;-66
2022/11/06 05:15:20;;;;;;;27.67;12.10;;;;;;;;;;1696179;84;21037;-66
2022/11/06 05:17:46;;;;;;;24.20;11.03;;;;;;;;;;1711922;83;21518;-66
2022/11/06 05:20:12;;;;;;;24.57;11.40;;;;;;;;;;1719092;83;21015;-66
2022/11/06 05:22:57;;;;;;;30.80;13.35;;;;;;;;;;1714612;84;21025;-66
2022/11/06 05:25:24;;;;;;;32.38;13.62;;;;;;;;;;1672848;83;21112;-67
2022/11/06 05:27:50;;;;;;;27.65;12.05;;;;;;;;;;1697805;83;21105;-65
2022/11/06 05:30:16;;;;;;;26.35;12.60;;;;;;;;;;1717254;83;21058;-65
2022/11/06 05:32:42;;;;;;;28.80;11.43;;;;;;;;;;1685805;84;21064;-66
2022/11/06 05:35:08;;;;;;;29.05;11.93;;;;;;;;;;1694449;84;21029;-65
2022/11/06 05:37:35;;;;;;;28.62;12.35;;;;;;;;;;1714976;83;21082;-68
2022/11/06 05:40:01;;;;;;;26.85;11.68;;;;;;;;;;1719938;83;21078;-66
2022/11/06 05:42:28;;;;;;;22.55;10.63;;;;;;;;;;1720227;83;21082;-66
2022/11/06 05:44:56;;;;;;;22.93;10.85;;;;;;;;;;1671352;85;21046;-65
2022/11/06 05:47:22;;;;;;;23.98;10.80;;;;;;;;;;1681989;83;21090;-65
2022/11/06 05:49:48;;;;;;;30.00;12.10;;;;;;;;;;1700863;83;21066;-66
2022/11/06 05:52:15;;;;;;;26.30;11.35;;;;;;;;;;1683665;85;21084;-65
2022/11/06 05:54:41;;;;;;;21.60;10.53;;;;;;;;;;1685969;84;21066;-65
2022/11/06 05:57:07;;;;;;;25.05;11.18;;;;;;;;;;1677293;84;21094;-65
2022/11/06 05:59:33;;;;;;;26.93;11.97;;;;;;;;;;1679335;83;21065;-66
2022/11/06 06:01:59;;;;;;;23.12;11.48;;;;;;;;;;1681580;83;21572;-66
2022/11/06 06:04:25;;;;;;;22.20;10.23;;;;;;;;;;1682470;83;21078;-66
2022/11/06 06:06:52;;;;;;;23.42;10.15;;;;;;;;;;1712252;83;21124;-66
2022/11/06 06:09:18;;;;;;;22.52;10.30;;;;;;;;;;1720423;83;21132;-66
2022/11/06 06:11:47;;;;;;;23.60;10.35;;;;;;;;;;1731877;82;21084;-66
2022/11/06 06:14:15;;;;;;;26.02;10.10;;;;;;;;;;1720842;82;21029;-67
2022/11/06 06:16:42;;;;;;;22.52;10.98;;;;;;;;;;1722124;82;21490;-67
2022/11/06 06:19:08;;;;;;;26.77;11.05;;;;;;;;;;1718120;83;21792;-65
2022/11/06 06:21:35;;;;;;;28.90;11.08;;;;;;;;;;1704739;84;21058;-66
2022/11/06 06:24:02;;;;;;;21.87;10.28;;;;;;;;;;1735180;82;21542;-66
2022/11/06 06:26:29;;;;;;;23.75;9.95;;;;;;;;;;1704975;84;21056;-66
2022/11/06 06:28:54;;;;;;;26.25;10.75;;;;;;;;;;1717995;82;21028;-66
2022/11/06 06:31:21;;;;;;;22.55;10.70;;;;;;;;;;1723815;82;21076;-66
2022/11/06 06:33:47;;;;;;;22.37;9.50;;;;;;;;;;1716693;83;21569;-66
2022/11/06 06:36:14;;;;;;;22.00;10.50;;;;;;;;;;1719385;83;21138;-66
2022/11/06 06:38:40;;;;;;;25.92;12.43;;;;;;;;;;1706754;83;21048;-66
2022/11/06 06:41:07;;;;;;;24.50;10.48;;;;;;;;;;1709748;83;21049;-66
2022/11/06 06:43:33;;;;;;;23.15;10.28;;;;;;;;;;1690879;83;21074;-66
2022/11/06 06:46:00;;;;;;;25.20;11.35;;;;;;;;;;1673251;84;21064;-67
2022/11/06 06:48:26;;;;;;;25.08;10.43;;;;;;;;;;1670304;84;21096;-66
2022/11/06 06:50:59;;;;;;;27.35;11.55;;;;;;;;;;1670702;86;21027;-66
2022/11/06 06:53:25;;;;;;;21.05;9.40;;;;;;;;;;1671580;84;21550;-66
2022/11/06 06:55:52;;;;;;;26.87;11.28;;;;;;;;;;1713196;83;21030;-66
2022/11/06 06:58:18;;;;;;;23.67;11.25;;;;;;;;;;1715560;82;21010;-66
2022/11/06 07:00:45;;;;;;;27.30;11.53;;;;;;;;;;1715557;82;21103;-66
2022/11/06 07:03:11;;;;;;;26.90;10.40;;;;;;;;;;1711972;83;21606;-66
2022/11/06 07:05:38;;;;;;;25.92;11.35;;;;;;;;;;1717759;81;21032;-66
2022/11/06 07:08:04;;;;;;;21.35;10.23;;;;;;;;;;1723342;81;21060;-66
2022/11/06 07:10:30;;;;;;;27.60;11.95;;;;;;;;;;1726382;81;21038;-67
2022/11/06 07:13:02;;;;;;;25.20;10.98;;;;;;;;;;1721695;81;21573;-66
2022/11/06 07:15:29;;;;;;;26.33;11.05;;;;;;;;;;1722810;81;21030;-66
2022/11/06 07:18:00;;;;;;;25.00;10.63;;;;;;;;;;1718839;81;21529;-67
2022/11/06 07:20:26;;;;;;;25.08;11.03;;;;;;;;;;1722742;81;21000;-66
2022/11/06 07:22:53;;;;;;;28.57;11.05;;;;;;;;;;1691734;83;21044;-66
2022/11/06 07:25:19;;;;;;;24.50;10.75;;;;;;;;;;1668866;85;21041;-70
2022/11/06 07:27:45;;;;;;;23.73;10.93;;;;;;;;;;1658436;85;21013;-66
2022/11/06 07:30:11;;;;;;;26.45;11.93;;;;;;;;;;1661200;85;21040;-67
2022/11/06 07:32:38;;;;;;;28.35;12.70;;;;;;;;;;1652318;85;21653;-67
2022/11/06 07:35:04;;;;;;;24.45;10.38;;;;;;;;;;1669576;85;21056;-66
2022/11/06 07:37:31;;;;;;;22.50;9.60;;;;;;;;;;1701782;83;21076;-67
2022/11/06 07:39:57;;;;;;;28.85;11.93;;;;;;;;;;1694256;85;21043;-67
2022/11/06 07:42:23;;;;;;;27.40;10.18;;;;;;;;;;1667729;85;21086;-66
2022/11/06 07:44:57;;;;;;;33.05;14.03;;;;;;;;;;1750238;81;21095;-66
2022/11/06 07:47:23;;;;;;;20.57;8.78;;;;;;;;;;1731332;81;21056;-67
2022/11/06 07:49:49;;;;;;;23.75;11.30;;;;;;;;;;1726131;82;21128;-67
2022/11/06 07:52:16;;;;;;;21.27;10.23;;;;;;;;;;1728756;81;21591;-66
2022/11/06 07:54:42;;;;;;;23.73;10.72;;;;;;;;;;1734359;81;21539;-66
2022/11/06 07:57:08;;;;;;;23.10;9.98;;;;;;;;;;1728657;83;21036;-66
2022/11/06 07:59:34;;;;;;;24.32;10.15;;;;;;;;;;1740128;82;21484;-67
2022/11/06 08:02:01;;;;;;;23.05;10.48;;;;;;;;;;1756582;80;21034;-67
2022/11/06 08:04:27;;;;;;;20.97;9.95;;;;;;;;;;1752614;81;21123;-67
2022/11/06 08:06:53;;;;;;;28.05;11.65;;;;;;;;;;1724164;82;21177;-67
2022/11/06 08:09:20;;;;;;;25.02;10.58;;;;;;;;;;1701872;83;21111;-66
2022/11/06 08:11:47;;;;;;;23.07;11.28;;;;;;;;;;1723039;83;21068;-67
2022/11/06 08:14:13;;;;;;;20.57;9.63;;;;;;;;;;1722871;83;21009;-67
2022/11/06 08:16:39;;;;;;;24.63;12.07;;;;;;;;;;1714866;83;21068;-67
2022/11/06 08:19:06;;;;;;;29.35;12.28;;;;;;;;;;1717665;82;21088;-66
2022/11/06 08:21:33;;;;;;;27.15;10.32;;;;;;;;;;1720281;82;21500;-66
2022/11/06 08:23:59;;;;;;;22.10;11.10;;;;;;;;;;1720136;83;20992;-67
2022/11/06 08:26:26;;;;;;;31.77;13.25;;;;;;;;;;1720453;82;21048;-66
2022/11/06 08:28:53;;;;;;;27.98;11.78;;;;;;;;;;1741552;82;21549;-68
2022/11/06 08:31:19;;;;;;;22.85;11.00;;;;;;;;;;1750544;82;21121;-66
2022/11/06 08:33:46;;;;;;;24.23;10.88;;;;;;;;;;1731787;82;21105;-66
2022/11/06 08:36:12;;;;;;;30.05;11.68;;;;;;;;;;1724744;82;21068;-66
2022/11/06 08:38:39;;;;;;;27.07;12.65;;;;;;;;;;1719678;82;21047;-67
2022/11/06 08:41:07;;;;;;;28.47;11.70;;;;;;;;;;1723070;82;21047;-66
2022/11/06 08:43:34;;;;;;;26.68;12.55;;;;;;;;;;1686021;83;21060;-66
2022/11/06 08:46:01;;;;;;;25.40;11.08;;;;;;;;;;1715527;82;21095;-65
2022/11/06 08:48:27;;;;;;;23.70;11.12;;;;;;;;;;1718336;82;21088;-65
2022/11/06 08:50:53;;;;;;;29.35;12.07;;;;;;;;;;1728880;82;20993;-65
2022/11/06 08:53:19;;;;;;;25.65;11.78;;;;;;;;;;1722731;82;21053;-66
2022/11/06 08:55:45;;;;;;;28.87;12.18;;;;;;;;;;1703855;82;21068;-66
2022/11/06 08:58:12;;;;;;;28.52;11.63;;;;;;;;;;1700611;82;21111;-65
2022/11/06 09:00:39;;;;;;;29.75;11.53;;;;;;;;;;1720901;82;22046;-67
2022/11/06 09:03:06;;;;;;;28.05;10.93;;;;;;;;;;1717380;81;21077;-66
2022/11/06 09:05:33;;;;;;;26.42;10.58;;;;;;;;;;1717047;83;21104;-66
2022/11/06 09:08:00;;;;;;;29.45;13.48;;;;;;;;;;1709324;83;21886;-65
2022/11/06 09:10:27;;;;;;;33.53;13.58;;;;;;;;;;1714227;82;21101;-67
2022/11/06 09:15:54;;;;;;;25.50;11.57;;;;;;;;;;1817075;77;24524;-66
2022/11/06 09:18:20;;;;;;;27.90;10.48;;;;;;;;;;1778797;80;21068;-67
2022/11/06 09:20:46;;;;;;;25.15;10.55;;;;;;;;;;1779770;80;21004;-67
2022/11/06 09:23:12;;;;;;;20.23;10.65;;;;;;;;;;1761060;81;21006;-67
2022/11/06 09:25:40;;;;;;;21.27;10.32;;;;;;;;;;1777262;80;21055;-67
2022/11/06 09:28:06;;;;;;;23.47;10.68;;;;;;;;;;1792803;80;21001;-67
2022/11/06 09:30:32;;;;;;;20.50;9.70;;;;;;;;;;1784118;80;21534;-67
2022/11/06 09:32:59;;;;;;;22.55;10.65;;;;;;;;;;1780610;80;21029;-67
2022/11/06 09:35:26;;;;;;;20.97;9.98;;;;;;;;;;1788374;80;21549;-68
2022/11/06 09:37:53;;;;;;;19.95;9.40;;;;;;;;;;1788419;80;21005;-67
2022/11/06 09:40:20;;;;;;;20.35;9.75;;;;;;;;;;1770859;80;21111;-67
2022/11/06 09:42:49;;;;;;;20.17;9.78;;;;;;;;;;1765548;78;21030;-68
2022/11/06 09:45:16;;;;;;;20.32;9.63;;;;;;;;;;1790653;80;20993;-67
2022/11/06 09:47:43;;;;;;;22.75;10.05;;;;;;;;;;1790397;79;21551;-67
2022/11/06 09:50:11;;;;;;;19.05;8.63;;;;;;;;;;1780978;79;21071;-67
2022/11/06 09:52:54;;;;;;;16.87;7.95;;;;;;;;;;1763595;80;21610;-67
2022/11/06 09:55:21;;;;;;;16.75;8.05;;;;;;;;;;1784684;80;21056;-67
2022/11/06 09:57:49;;;;;;;18.87;8.10;;;;;;;;;;1773352;80;21035;-68
2022/11/06 10:00:15;;;;;;;16.12;8.10;;;;;;;;;;1768383;80;21020;-67
2022/11/06 10:02:49;;;;;;;22.60;9.15;;;;;;;;;;1778740;80;21103;-68
2022/11/06 10:05:20;;;;;;;19.23;8.88;;;;;;;;;;1769655;80;21543;-68
2022/11/06 10:07:49;;;;;;;18.98;9.75;;;;;;;;;;1770467;80;21496;-67
2022/11/06 10:10:16;;;;;;;17.62;9.13;;;;;;;;;;1773565;80;21027;-66
2022/11/06 10:13:01;;;;;;;21.15;10.10;;;;;;;;;;1772439;80;21481;-67
2022/11/06 10:15:35;;;;;;;23.25;10.20;;;;;;;;;;1769590;80;21045;-66
2022/11/06 10:18:04;;;;;;;19.40;9.73;;;;;;;;;;1759116;81;21009;-67
2022/11/06 10:20:32;;;;;;;17.73;8.60;;;;;;;;;;1754434;81;21006;-66
2022/11/06 10:23:02;;;;;;;24.63;10.82;;;;;;;;;;1767149;81;21559;-66
2022/11/06 10:25:46;;;;;;;21.48;10.40;;;;;;;;;;1771544;81;21088;-66
2022/11/06 10:28:29;;;;;;;24.30;10.00;;;;;;;;;;1752343;81;21063;-66
2022/11/06 10:30:59;;;;;;;22.77;10.43;;;;;;;;;;1756991;81;22131;-66
2022/11/06 10:33:29;;;;;;;17.82;8.23;;;;;;;;;;1765452;81;21096;-66
2022/11/06 10:36:12;;;;;;;15.60;7.85;;;;;;;;;;1758771;81;21041;-66
2022/11/06 10:38:40;;;;;;;18.15;8.63;;;;;;;;;;1770765;81;20986;-66
2022/11/06 10:41:08;;;;;;;16.67;7.78;;;;;;;;;;1747422;81;21296;-66
2022/11/06 10:43:36;;;;;;;15.18;6.90;;;;;;;;;;1747453;81;21010;-66
2022/11/06 10:46:22;;;;;;;13.13;7.10;;;;;;;;;;1752184;81;21513;-66
2022/11/06 10:48:49;;;;;;;15.80;7.60;;;;;;;;;;1712270;84;21464;-67
2022/11/06 10:51:21;;;;;;;15.20;8.15;;;;;;;;;;1702276;82;21129;-66
2022/11/06 10:53:49;;;;;;;14.73;7.70;;;;;;;;;;1708483;83;21096;-66
2022/11/06 10:56:17;;;;;;;14.93;8.00;;;;;;;;;;1713733;83;21057;-66
2022/11/06 10:58:43;;;;;;;15.95;8.25;;;;;;;;;;1776292;81;21010;-66
2022/11/06 11:01:11;;;;;;;14.73;7.42;;;;;;;;;;1765139;81;21065;-65
2022/11/06 11:03:42;;;;;;;15.35;7.90;;;;;;;;;;1767123;81;20995;-67
2022/11/06 11:06:08;;;;;;;14.40;7.67;;;;;;;;;;1750744;81;21045;-66
2022/11/06 11:08:37;;;;;;;16.32;7.92;;;;;;;;;;1747939;82;21033;-66
2022/11/06 11:11:14;;;;;;;17.30;7.62;;;;;;;;;;1737300;82;21540;-66
2022/11/06 11:13:41;;;;;;;13.83;7.67;;;;;;;;;;1748572;81;21119;-66
2022/11/06 11:16:20;;;;;;;17.67;9.13;;;;;;;;;;1764129;80;21029;-66
2022/11/06 11:18:48;;;;;;;18.35;9.10;;;;;;;;;;1790214;80;22197;-66
2022/11/06 11:21:19;;;;;;;18.25;8.80;;;;;;;;;;1790552;80;21084;-67
2022/11/06 11:23:47;;;;;;;19.82;8.58;;;;;;;;;;1763399;80;21614;-67
2022/11/06 11:26:23;;;;;;;17.85;8.20;;;;;;;;;;1755966;81;21535;-68
2022/11/06 11:28:51;;;;;;;16.25;8.53;;;;;;;;;;1784207;80;21060;-67
2022/11/06 11:31:17;;;;;;;16.87;7.87;;;;;;;;;;1775065;80;21515;-67
2022/11/06 11:33:48;;;;;;;18.07;7.87;;;;;;;;;;1771912;80;21024;-67
2022/11/06 11:36:14;;;;;;;17.85;10.15;;;;;;;;;;1782256;80;21044;-66
2022/11/06 11:38:41;;;;;;;20.85;11.53;;;;;;;;;;1778453;80;20970;-68
2022/11/06 11:41:09;;;;;;;18.82;9.35;;;;;;;;;;1754515;80;22211;-67
2022/11/06 11:43:36;;;;;;;13.75;7.83;;;;;;;;;;1767724;80;21552;-67
2022/11/06 11:46:06;;;;;;;19.25;8.68;;;;;;;;;;1768337;80;21024;-66
2022/11/06 11:48:43;;;;;;;17.35;8.98;;;;;;;;;;1777514;80;21000;-67
2022/11/06 11:51:14;;;;;;;17.07;8.55;;;;;;;;;;1779167;80;20997;-67
2022/11/06 11:53:40;;;;;;;15.23;8.00;;;;;;;;;;1789002;80;21095;-70
2022/11/06 11:56:06;;;;;;;13.60;7.28;;;;;;;;;;1769117;80;21501;-68
2022/11/06 11:58:34;;;;;;;16.23;8.18;;;;;;;;;;1752054;80;20984;-67
2022/11/06 12:01:01;;;;;;;17.25;8.00;;;;;;;;;;1748205;81;21131;-67
2022/11/06 12:03:29;;;;;;;34.27;13.05;;;;;;;;;;1773590;80;21064;-66
2022/11/06 12:06:07;;;;;;;52.17;20.17;;;;;;;;;;1782872;80;21029;-67
2022/11/06 12:08:33;;;;;;;25.10;10.82;;;;;;;;;;1783343;80;21445;-67
2022/11/06 12:11:02;;;;;;;22.02;10.28;;;;;;;;;;1784128;80;21028;-67
2022/11/06 12:13:28;;;;;;;23.00;10.55;;;;;;;;;;1791680;79;21014;-67
2022/11/06 12:15:56;;;;;;;22.85;10.10;;;;;;;;;;1771694;80;21049;-67
2022/11/06 12:18:24;;;;;;;19.25;9.78;;;;;;;;;;1749808;81;21057;-67
2022/11/06 12:20:59;;;;;;;19.17;9.50;;;;;;;;;;1760576;81;21006;-68
2022/11/06 12:23:27;;;;;;;16.02;8.90;;;;;;;;;;1758783;81;21076;-67
2022/11/06 12:25:56;;;;;;;20.57;9.93;;;;;;;;;;1756343;81;21029;-67
2022/11/06 12:28:22;;;;;;;18.98;9.05;;;;;;;;;;1746151;81;21524;-67
2022/11/06 12:30:50;;;;;;;23.40;10.18;;;;;;;;;;1756967;81;21108;-67
2022/11/06 12:33:17;;;;;;;17.10;8.60;;;;;;;;;;1769153;80;20962;-67
2022/11/06 12:35:46;;;;;;;19.27;9.43;;;;;;;;;;1756964;81;21070;-67
2022/11/06 12:38:20;;;;;;;21.27;9.10;;;;;;;;;;1757283;81;20994;-69
2022/11/06 12:40:48;;;;;;;23.32;9.88;;;;;;;;;;1760928;80;20998;-67
2022/11/06 12:43:33;;;;;;;23.10;10.38;;;;;;;;;;1772049;81;21053;-67
2022/11/06 12:46:01;;;;;;;20.55;9.68;;;;;;;;;;1751756;81;21027;-68
2022/11/06 12:48:38;;;;;;;20.27;9.28;;;;;;;;;;1753325;80;21002;-68
2022/11/06 12:51:07;;;;;;;17.35;8.05;;;;;;;;;;1763426;80;21786;-66
2022/11/06 12:53:38;;;;;;;17.15;8.55;;;;;;;;;;1757769;80;21626;-66
2022/11/06 12:56:12;;;;;;;19.23;9.75;;;;;;;;;;1757971;80;21092;-66
2022/11/06 12:58:52;;;;;;;30.62;14.78;;;;;;;;;;1731182;82;21569;-67
2022/11/06 13:01:22;;;;;;;19.62;10.38;;;;;;;;;;1761040;79;21072;-67
2022/11/06 13:03:52;;;;;;;20.55;9.00;;;;;;;;;;1761640;80;21014;-66
2022/11/06 13:06:23;;;;;;;20.23;9.28;;;;;;;;;;1762686;80;21013;-67
2022/11/06 13:09:00;;;;;;;18.48;8.50;;;;;;;;;;1747957;80;21620;-67
2022/11/06 13:11:34;;;;;;;15.55;7.95;;;;;;;;;;1756918;80;21543;-67
2022/11/06 13:14:18;;;;;;;15.72;8.10;;;;;;;;;;1759815;79;21021;-67
2022/11/06 13:16:50;;;;;;;16.30;8.38;;;;;;;;;;1778936;79;21484;-67
2022/11/06 13:19:33;;;;;;;18.05;8.60;;;;;;;;;;1774934;80;21048;-65
2022/11/06 13:22:01;;;;;;;14.10;6.80;;;;;;;;;;1771074;80;21072;-67
2022/11/06 13:24:38;;;;;;;18.87;9.40;;;;;;;;;;1747939;80;21064;-67
2022/11/06 13:27:09;;;;;;;14.65;7.90;;;;;;;;;;1747208;80;21032;-67
2022/11/06 13:29:36;;;;;;;16.10;8.70;;;;;;;;;;1775406;80;21040;-67
2022/11/06 13:32:03;;;;;;;19.07;8.63;;;;;;;;;;1773841;80;21006;-66
2022/11/06 13:34:31;;;;;;;22.93;9.43;;;;;;;;;;1774351;80;21017;-66
2022/11/06 13:36:57;;;;;;;17.05;9.08;;;;;;;;;;1782801;80;21492;-67
2022/11/06 13:39:25;;;;;;;18.70;9.25;;;;;;;;;;1771307;80;21535;-67
2022/11/06 13:41:51;;;;;;;19.07;8.75;;;;;;;;;;1773468;80;21031;-68
2022/11/06 13:44:18;;;;;;;15.78;8.30;;;;;;;;;;1774636;80;21560;-67
2022/11/06 13:46:48;;;;;;;15.70;7.87;;;;;;;;;;1772145;80;21052;-67
2022/11/06 13:49:18;;;;;;;15.20;8.18;;;;;;;;;;1770974;80;21083;-68
2022/11/06 13:51:51;;;;;;;14.78;8.50;;;;;;;;;;1718860;80;21001;-67
2022/11/06 13:54:25;;;;;;;15.28;8.53;;;;;;;;;;1768889;80;21095;-67
2022/11/06 13:56:56;;;;;;;17.62;8.30;;;;;;;;;;1770422;80;21078;-67
2022/11/06 13:59:36;;;;;;;15.72;8.13;;;;;;;;;;1775195;79;21005;-66
2022/11/06 14:02:20;;;;;;;15.58;7.65;;;;;;;;;;1773738;79;21080;-67
2022/11/06 14:04:53;;;;;;;14.63;7.90;;;;;;;;;;1774008;80;21088;-66
2022/11/06 14:21:27;;;;;;;19.02;9.18;;;;;;;;;;1804346;77;22891;-68
2022/11/06 14:23:54;;;;;;;15.48;8.30;;;;;;;;;;1776868;78;21563;-67
2022/11/06 14:26:39;;;;;;;17.82;9.30;;;;;;;;;;1778621;78;20977;-68
2022/11/06 14:29:07;;;;;;;16.27;8.80;;;;;;;;;;1787727;78;21022;-67
2022/11/06 14:31:52;;;;;;;17.60;8.43;;;;;;;;;;1743791;78;21061;-66
2022/11/06 14:34:26;;;;;;;17.07;8.35;;;;;;;;;;1783626;78;21092;-67
2022/11/06 14:36:52;;;;;;;16.63;8.87;;;;;;;;;;1776784;78;21102;-67
2022/11/06 14:39:18;;;;;;;15.72;9.53;;;;;;;;;;1776659;78;21207;-66
2022/11/06 14:41:52;;;;;;;16.48;7.92;;;;;;;;;;1758831;78;21056;-67
2022/11/06 14:44:23;;;;;;;17.30;9.63;;;;;;;;;;1782539;78;21029;-67
2022/11/06 14:46:50;;;;;;;21.05;9.35;;;;;;;;;;1774607;78;21045;-69
2022/11/06 14:49:21;;;;;;;15.50;8.23;;;;;;;;;;1782084;78;20981;-68
2022/11/06 14:51:49;;;;;;;16.25;8.63;;;;;;;;;;1776469;78;21061;-68
2022/11/06 14:54:20;;;;;;;21.27;11.30;;;;;;;;;;1771634;78;21005;-68
2022/11/06 14:56:50;;;;;;;22.62;10.80;;;;;;;;;;1780129;78;21671;-68
2022/11/06 14:59:20;;;;;;;22.67;10.78;;;;;;;;;;1784255;78;21037;-68
2022/11/06 15:02:02;;;;;;;23.20;10.43;;;;;;;;;;1782777;78;21603;-69